Time;durP1;ratioP1;P1;durP2;ratioP2;P2;SDS_P1;SDS_P2;PMS_P1;PMS_P2;Temp;Humidity;BMP_temperature;BMP_pressure;BME280_temperature;BME280_humidity;BME280_pressure;Samples;Min_cycle;Max_cycle;Signal;HPM_P1;HPM_P2
2022/09/02 04:00:13;;;;;;;1.00;1.00;;;11.50;99.90;;;;;;6038728;23;20203;31
2022/09/02 04:02:40;;;;;;;1.02;1.02;;;11.40;99.90;;;;;;4992179;28;20232;-74
2022/09/02 04:05:08;;;;;;;4.97;1.42;;;11.40;99.90;;;;;;4995012;28;20209;-74
2022/09/02 04:07:35;;;;;;;1.27;1.27;;;11.40;99.90;;;;;;4994486;28;20222;-74
2022/09/02 04:10:01;;;;;;;1.00;1.00;;;11.40;99.90;;;;;;4994830;28;20229;-74
2022/09/02 04:12:28;;;;;;;0.93;0.93;;;11.40;99.90;;;;;;4994284;28;20746;-75
2022/09/02 04:14:55;;;;;;;1.02;1.02;;;11.30;99.90;;;;;;4994539;28;20230;-75
2022/09/02 04:17:23;;;;;;;1.00;0.80;;;11.40;99.90;;;;;;5016735;23;20597;-69
2022/09/02 04:19:50;;;;;;;1.25;1.25;;;11.30;99.90;;;;;;4993233;28;20219;-69
2022/09/02 04:22:17;;;;;;;0.90;0.90;;;11.30;99.90;;;;;;4989968;28;20231;-69
2022/09/02 04:24:43;;;;;;;1.63;1.63;;;11.30;99.90;;;;;;4974441;28;20313;-69
2022/09/02 04:27:10;;;;;;;1.25;1.25;;;11.30;99.90;;;;;;4962390;28;20236;-69
2022/09/02 04:29:37;;;;;;;1.40;1.40;;;11.30;99.90;;;;;;4955494;28;20217;-69
2022/09/02 04:32:04;;;;;;;0.60;0.60;;;11.30;99.90;;;;;;4954651;28;20216;-69
2022/09/02 04:34:32;;;;;;;1.65;1.17;;;11.30;99.90;;;;;;4954879;28;20228;-70
2022/09/02 04:36:59;;;;;;;1.13;1.13;;;11.30;99.90;;;;;;4954719;28;20261;-70
2022/09/02 04:39:26;;;;;;;1.40;1.40;;;11.30;99.90;;;;;;4960007;28;20211;-70
2022/09/02 04:41:52;;;;;;;4.35;1.05;;;11.30;99.90;;;;;;4973492;28;20234;-70
2022/09/02 04:44:19;;;;;;;1.50;1.40;;;11.30;99.90;;;;;;4972955;28;20296;-70
2022/09/02 04:46:47;;;;;;;2.80;1.55;;;11.30;99.90;;;;;;4961645;28;20230;-69
2022/09/02 04:49:14;;;;;;;3.17;1.33;;;11.30;99.90;;;;;;4954793;28;20210;-69
2022/09/02 04:51:42;;;;;;;0.90;0.90;;;11.30;99.90;;;;;;4954489;28;20210;-70
2022/09/02 04:54:09;;;;;;;1.13;1.13;;;11.30;99.90;;;;;;4957244;28;20219;-70
2022/09/02 04:56:37;;;;;;;1.10;1.00;;;11.30;99.90;;;;;;4965086;28;20676;-69
2022/09/02 04:59:04;;;;;;;1.10;1.10;;;11.30;99.90;;;;;;4973910;28;20585;-69
2022/09/02 05:01:33;;;;;;;1.45;1.40;;;11.30;99.90;;;;;;4973868;28;20409;-69
2022/09/02 05:04:01;;;;;;;1.20;1.20;;;11.40;99.90;;;;;;4972317;28;20281;-70
2022/09/02 05:06:28;;;;;;;0.60;0.60;;;11.40;99.90;;;;;;4955738;28;20232;-69
2022/09/02 05:08:59;;;;;;;0.65;0.65;;;11.40;99.90;;;;;;4954427;28;20220;-70
2022/09/02 05:11:28;;;;;;;1.48;1.38;;;11.40;99.90;;;;;;4969971;28;20205;-70
2022/09/02 05:13:57;;;;;;;1.17;1.15;;;11.40;99.90;;;;;;4968096;28;20199;-69
2022/09/02 05:16:27;;;;;;;0.90;0.90;;;11.50;99.90;;;;;;4963087;28;20255;-71
2022/09/02 05:18:55;;;;;;;1.40;1.30;;;11.50;99.90;;;;;;4973312;28;20213;-70
2022/09/02 05:21:23;;;;;;;0.82;0.82;;;11.50;99.90;;;;;;4973418;28;20207;-69
2022/09/02 05:23:50;;;;;;;2.60;1.52;;;11.60;99.90;;;;;;4973296;28;20626;-68
2022/09/02 05:26:18;;;;;;;1.38;1.00;;;11.60;99.90;;;;;;4971424;28;20667;-70
2022/09/02 05:28:45;;;;;;;1.10;1.05;;;11.60;99.90;;;;;;4962138;28;20202;-68
2022/09/02 05:31:14;;;;;;;1.42;1.42;;;11.60;99.90;;;;;;4954100;28;20854;-68
2022/09/02 05:33:41;;;;;;;1.10;1.10;;;11.60;99.90;;;;;;4953581;28;20224;-69
2022/09/02 05:36:11;;;;;;;1.20;1.20;;;11.70;99.90;;;;;;4953696;28;20240;-69
2022/09/02 05:38:39;;;;;;;0.85;0.85;;;11.70;99.90;;;;;;4953961;28;20312;-68
2022/09/02 05:41:06;;;;;;;3.92;1.20;;;11.70;99.90;;;;;;4953778;28;20217;-68
2022/09/02 05:43:36;;;;;;;1.10;1.10;;;11.80;99.90;;;;;;4958789;28;20292;-68
2022/09/02 05:46:06;;;;;;;1.30;1.30;;;11.80;99.90;;;;;;4962096;28;20228;-69
2022/09/02 05:51:17;;;;;;;1.48;1.38;;;11.90;99.90;;;;;;4953411;29;20332;-69
2022/09/02 05:53:44;;;;;;;1.00;1.00;;;11.90;99.90;;;;;;4953336;28;20210;-69
2022/09/02 05:56:11;;;;;;;1.30;1.30;;;12.00;99.90;;;;;;4953331;28;20243;-69
2022/09/02 05:58:39;;;;;;;0.80;0.80;;;12.00;99.90;;;;;;4953659;28;20226;-69
2022/09/02 06:01:10;;;;;;;2.35;1.17;;;12.10;99.90;;;;;;4960875;28;20666;-70
2022/09/02 06:03:37;;;;;;;0.60;0.60;;;12.10;99.90;;;;;;4970795;28;20555;-69
2022/09/02 06:06:05;;;;;;;0.82;0.82;;;12.20;99.90;;;;;;4957048;28;20233;-68
2022/09/02 06:08:32;;;;;;;1.63;1.63;;;12.20;99.90;;;;;;4953308;28;20222;-68
2022/09/02 06:10:59;;;;;;;0.70;0.70;;;12.30;99.90;;;;;;4953572;28;20206;-68
2022/09/02 06:13:26;;;;;;;0.95;0.95;;;12.40;99.90;;;;;;4953229;28;20605;-68
2022/09/02 06:15:56;;;;;;;1.25;1.25;;;12.50;99.90;;;;;;4953602;28;20227;-69
2022/09/02 06:18:23;;;;;;;0.82;0.82;;;12.60;99.90;;;;;;4965939;28;20214;-69
2022/09/02 06:20:51;;;;;;;0.95;0.95;;;12.70;99.90;;;;;;4966966;28;20205;-69
2022/09/02 06:23:18;;;;;;;4.32;0.85;;;12.70;99.90;;;;;;4956856;28;20218;-70
2022/09/02 06:25:47;;;;;;;1.10;1.10;;;12.80;99.90;;;;;;4959995;28;20218;-69
2022/09/02 06:28:14;;;;;;;0.95;0.95;;;12.90;99.90;;;;;;4953366;28;20571;-68
2022/09/02 06:30:43;;;;;;;1.13;1.10;;;13.00;99.90;;;;;;4952836;28;20217;-69
2022/09/02 06:33:12;;;;;;;1.30;1.30;;;13.10;99.90;;;;;;4952261;28;20214;-68
2022/09/02 06:35:41;;;;;;;0.98;0.98;;;13.20;99.90;;;;;;4952871;28;20495;-69
2022/09/02 06:38:08;;;;;;;1.40;1.40;;;13.30;99.90;;;;;;4971201;28;20526;-69
2022/09/02 06:40:35;;;;;;;1.20;1.20;;;13.40;99.90;;;;;;4952985;28;20261;-69
2022/09/02 06:43:02;;;;;;;1.00;1.00;;;13.50;99.90;;;;;;4952419;28;20979;-69
2022/09/02 06:45:30;;;;;;;2.50;1.53;;;13.60;99.90;;;;;;4952936;28;20468;-69
2022/09/02 06:47:56;;;;;;;1.20;1.10;;;13.70;99.90;;;;;;4952090;28;20593;-69
2022/09/02 06:50:24;;;;;;;1.13;1.13;;;13.90;99.90;;;;;;4953139;28;20475;-68
2022/09/02 06:52:51;;;;;;;1.40;1.40;;;13.90;99.90;;;;;;4955408;28;20694;-69
2022/09/02 06:55:18;;;;;;;0.60;0.60;;;14.10;99.90;;;;;;4960811;28;20487;-70
2022/09/02 06:57:45;;;;;;;1.03;1.00;;;14.20;99.90;;;;;;4971881;28;20986;-70
2022/09/02 07:00:12;;;;;;;0.93;0.93;;;14.30;99.90;;;;;;4972106;28;20473;-69
2022/09/02 07:02:39;;;;;;;1.00;1.00;;;14.30;99.90;;;;;;4971303;28;20476;-69
2022/09/02 07:05:14;;;;;;;0.67;0.67;;;14.40;99.90;;;;;;4971912;28;20462;-69
2022/09/02 07:07:46;;;;;;;1.23;1.00;;;14.50;99.90;;;;;;4971325;28;20485;-69
2022/09/02 07:10:14;;;;;;;0.60;0.60;;;14.60;99.90;;;;;;4970721;28;20467;-69
2022/09/02 07:12:41;;;;;;;1.67;1.20;;;14.70;99.90;;;;;;4952181;28;20463;-69
2022/09/02 07:15:09;;;;;;;0.97;0.77;;;14.80;99.90;;;;;;4952559;28;20514;-68
2022/09/02 07:17:36;;;;;;;0.40;0.40;;;14.80;99.90;;;;;;4954434;28;20531;-69
2022/09/02 07:20:04;;;;;;;0.50;0.50;;;14.90;99.90;;;;;;4956630;28;20473;-68
2022/09/02 07:22:31;;;;;;;0.77;0.77;;;15.00;99.90;;;;;;4955876;28;20657;-70
2022/09/02 07:24:59;;;;;;;0.60;0.60;;;15.10;99.90;;;;;;4956083;28;20462;-69
2022/09/02 07:27:26;;;;;;;1.63;0.77;;;15.40;99.90;;;;;;4965340;28;20521;-69
2022/09/02 07:29:53;;;;;;;0.50;0.50;;;15.50;99.90;;;;;;4975526;28;20478;-69
2022/09/02 07:32:20;;;;;;;0.97;0.97;;;15.60;99.90;;;;;;4975030;28;20463;-70
2022/09/02 07:34:47;;;;;;;0.80;0.80;;;15.70;99.90;;;;;;4975557;28;20631;-69
2022/09/02 07:37:14;;;;;;;0.80;0.80;;;15.80;99.90;;;;;;4971049;28;20503;-69
2022/09/02 07:39:42;;;;;;;0.57;0.57;;;15.90;99.90;;;;;;4956713;29;20471;-69
2022/09/02 07:42:11;;;;;;;1.00;1.00;;;16.00;99.90;;;;;;4962693;28;21042;-68
2022/09/02 07:44:38;;;;;;;0.60;0.60;;;16.20;99.90;;;;;;4964210;28;20487;-69
2022/09/02 07:47:05;;;;;;;0.63;0.63;;;16.20;99.90;;;;;;4955502;28;20509;-68
2022/09/02 07:49:32;;;;;;;3.43;0.70;;;16.30;99.90;;;;;;4955989;28;20467;-69
2022/09/02 07:51:59;;;;;;;0.97;0.97;;;16.30;99.90;;;;;;4955365;28;20468;-69
2022/09/02 07:54:26;;;;;;;0.70;0.70;;;16.40;99.90;;;;;;4955776;28;20479;-69
2022/09/02 07:56:54;;;;;;;0.40;0.40;;;16.50;99.90;;;;;;4955494;28;20501;-69
2022/09/02 07:59:23;;;;;;;1.13;0.73;;;16.60;99.90;;;;;;4967904;28;20499;-69
2022/09/02 08:01:50;;;;;;;1.90;0.93;;;16.70;99.90;;;;;;4961724;28;21037;-70
2022/09/02 08:04:18;;;;;;;0.57;0.57;;;16.80;99.90;;;;;;4955559;28;20471;-69
2022/09/02 08:06:45;;;;;;;0.50;0.50;;;16.90;99.90;;;;;;4954985;28;20485;-69
2022/09/02 08:09:12;;;;;;;0.63;0.63;;;17.10;99.90;;;;;;4955260;28;20955;-70
2022/09/02 08:11:40;;;;;;;0.50;0.50;;;17.20;99.90;;;;;;4955215;28;20478;-70
2022/09/02 08:14:08;;;;;;;0.60;0.60;;;17.20;99.90;;;;;;4955303;28;20465;-69
2022/09/02 08:16:37;;;;;;;0.40;0.40;;;17.30;99.90;;;;;;4964574;28;20493;-70
2022/09/02 08:19:04;;;;;;;0.40;0.40;;;17.40;99.90;;;;;;4974854;28;20591;-69
2022/09/02 08:21:31;;;;;;;0.37;0.37;;;17.50;99.90;;;;;;4974097;28;20516;-69
2022/09/02 08:23:59;;;;;;;0.60;0.60;;;17.60;99.90;;;;;;4973970;28;20541;-70
2022/09/02 08:26:27;;;;;;;0.30;0.30;;;17.70;99.90;;;;;;4973215;28;20485;-69
2022/09/02 08:28:53;;;;;;;0.50;0.50;;;17.80;99.90;;;;;;4954469;28;20458;-69
2022/09/02 08:31:20;;;;;;;0.50;0.50;;;17.80;99.90;;;;;;4960760;28;20475;-69
2022/09/02 08:33:48;;;;;;;1.80;0.50;;;17.90;99.90;;;;;;4962395;28;20579;-70
2022/09/02 08:36:15;;;;;;;0.50;0.50;;;18.00;99.90;;;;;;4954732;28;20528;-69
2022/09/02 08:38:43;;;;;;;0.60;0.60;;;18.10;99.90;;;;;;4954496;28;20471;-69
2022/09/02 08:41:19;;;;;;;0.30;0.30;;;18.30;99.90;;;;;;4955160;28;20470;-69
2022/09/02 08:43:47;;;;;;;1.50;0.77;;;18.30;99.90;;;;;;4954562;28;20827;-70
2022/09/02 08:46:17;;;;;;;0.77;0.77;;;18.50;99.90;;;;;;4954799;28;20494;-69
2022/09/02 08:48:49;;;;;;;0.83;0.83;;;18.60;99.90;;;;;;4961697;28;20468;-70
2022/09/02 08:51:20;;;;;;;0.47;0.47;;;18.50;99.90;;;;;;4957729;28;20499;-69
2022/09/02 08:53:51;;;;;;;0.37;0.37;;;18.60;99.90;;;;;;4954111;28;20467;-69
2022/09/02 08:56:18;;;;;;;0.57;0.57;;;18.70;99.90;;;;;;4958138;28;20501;-69
2022/09/02 08:58:51;;;;;;;0.30;0.30;;;18.80;99.90;;;;;;4962375;28;20497;-70
2022/09/02 09:01:24;;;;;;;0.67;0.67;;;18.90;99.90;;;;;;4954470;29;20466;-69
2022/09/02 09:04:07;;;;;;;0.40;0.40;;;18.90;99.90;;;;;;4968380;28;20575;-70
2022/09/02 09:06:48;;;;;;;0.40;0.40;;;19.00;99.90;;;;;;4954530;28;20501;-70
2022/09/02 09:09:23;;;;;;;0.50;0.50;;;19.10;99.90;;;;;;4954206;28;20982;-69
2022/09/02 09:12:01;;;;;;;0.57;0.57;;;19.20;99.90;;;;;;4970269;28;20476;-69
2022/09/02 09:14:33;;;;;;;0.43;0.43;;;19.30;99.90;;;;;;4955883;28;20474;-70
2022/09/02 09:17:05;;;;;;;1.27;0.70;;;19.30;99.90;;;;;;4953806;28;20499;-70
2022/09/02 09:19:42;;;;;;;0.40;0.40;;;19.30;99.90;;;;;;4954380;28;20475;-70
2022/09/02 09:22:12;;;;;;;0.50;0.50;;;19.30;99.90;;;;;;4953779;28;20474;-70
2022/09/02 09:24:41;;;;;;;0.37;0.37;;;19.40;99.90;;;;;;4954304;28;20472;-70
2022/09/02 09:27:13;;;;;;;0.50;0.50;;;19.50;99.90;;;;;;4955661;28;20496;-71
2022/09/02 09:29:39;;;;;;;0.40;0.40;;;19.50;99.90;;;;;;4965497;28;20472;-70
2022/09/02 09:32:17;;;;;;;0.60;0.60;;;19.60;99.90;;;;;;4972895;28;20470;-70
2022/09/02 09:35:05;;;;;;;0.70;0.70;;;19.70;99.90;;;;;;4972115;28;20480;-70
2022/09/02 09:37:35;;;;;;;0.40;0.40;;;19.70;99.90;;;;;;4954899;28;20507;-71
2022/09/02 09:40:22;;;;;;;0.73;0.73;;;19.80;99.90;;;;;;4961348;28;21047;-70
2022/09/02 09:42:54;;;;;;;0.50;0.50;;;19.80;99.90;;;;;;4953844;29;20462;-70
2022/09/02 09:45:26;;;;;;;0.50;0.50;;;19.80;99.90;;;;;;4954286;29;20490;-70
2022/09/02 09:48:15;;;;;;;0.63;0.63;;;19.90;99.90;;;;;;4953179;28;20490;-70
2022/09/02 09:50:44;;;;;;;0.60;0.60;;;20.00;99.90;;;;;;4953505;28;20493;-69
2022/09/02 09:53:20;;;;;;;0.50;0.50;;;20.00;99.90;;;;;;4965244;28;20474;-71
2022/09/02 09:55:53;;;;;;;0.40;0.40;;;20.10;99.90;;;;;;4966043;28;20808;-70
2022/09/02 09:58:22;;;;;;;0.87;0.60;;;20.20;99.90;;;;;;4973367;28;20502;-70
2022/09/02 10:00:51;;;;;;;0.60;0.60;;;20.30;99.90;;;;;;4973645;28;20500;-70
2022/09/02 10:03:23;;;;;;;0.33;0.33;;;20.20;99.90;;;;;;4972591;28;20467;-70
2022/09/02 10:05:54;;;;;;;0.50;0.50;;;20.20;99.90;;;;;;4971484;28;20463;-70
2022/09/02 10:08:23;;;;;;;0.70;0.70;;;20.20;99.90;;;;;;4972070;28;20873;-69
2022/09/02 10:10:59;;;;;;;0.47;0.47;;;20.40;99.90;;;;;;4953604;28;20483;-69
2022/09/02 10:13:29;;;;;;;0.60;0.60;;;20.50;99.90;;;;;;4969778;28;20471;-69
2022/09/02 10:16:13;;;;;;;0.40;0.40;;;20.60;99.90;;;;;;4958766;28;20503;-70
2022/09/02 10:18:46;;;;;;;0.50;0.50;;;20.60;99.90;;;;;;4984081;23;20510;-72
2022/09/02 10:21:25;;;;;;;1.07;1.07;;;20.70;99.90;;;;;;4960392;28;20986;-72
2022/09/02 10:24:03;;;;;;;0.53;0.53;;;20.80;99.90;;;;;;4966110;28;20865;-73
2022/09/02 10:26:37;;;;;;;0.50;0.50;;;20.80;99.90;;;;;;4972490;28;20494;-72
2022/09/02 10:29:27;;;;;;;0.50;0.50;;;20.90;99.90;;;;;;4957929;28;20881;-72
2022/09/02 10:32:09;;;;;;;7.70;0.70;;;20.90;99.90;;;;;;4956814;28;20478;-71
2022/09/02 10:34:45;;;;;;;0.60;0.60;;;21.00;99.90;;;;;;4961181;28;20462;-72
2022/09/02 10:37:18;;;;;;;0.50;0.50;;;21.10;99.90;;;;;;4952370;28;21111;-72
2022/09/02 10:40:07;;;;;;;0.53;0.53;;;21.20;99.90;;;;;;4953539;28;20473;-72
2022/09/02 10:42:42;;;;;;;0.80;0.80;;;21.30;99.90;;;;;;4952691;28;20979;-73
2022/09/02 10:45:16;;;;;;;0.50;0.50;;;21.40;99.90;;;;;;4953389;28;20502;-72
2022/09/02 10:47:50;;;;;;;0.40;0.40;;;21.40;99.90;;;;;;4962321;28;20531;-73
2022/09/02 10:50:22;;;;;;;1.10;1.00;;;21.50;99.90;;;;;;4963214;28;20478;-72
2022/09/02 10:53:11;;;;;;;0.40;0.40;;;21.60;99.90;;;;;;4971485;28;20550;-72
2022/09/02 10:55:46;;;;;;;0.67;0.67;;;21.60;99.90;;;;;;4972162;28;20476;-72
2022/09/02 10:58:18;;;;;;;0.50;0.50;;;21.60;99.90;;;;;;4971843;28;20479;-72
2022/09/02 11:00:50;;;;;;;0.60;0.60;;;21.50;99.90;;;;;;4972361;28;20482;-72
2022/09/02 11:03:23;;;;;;;0.50;0.50;;;21.60;99.90;;;;;;4970647;28;20550;-72
2022/09/02 11:05:53;;;;;;;0.70;0.70;;;21.60;99.90;;;;;;4960481;28;21152;-72
2022/09/02 11:08:27;;;;;;;1.00;1.00;;;21.70;99.90;;;;;;4952881;28;20485;-72
2022/09/02 11:11:03;;;;;;;0.57;0.57;;;21.80;99.90;;;;;;4952697;28;21013;-73
2022/09/02 11:13:38;;;;;;;0.40;0.40;;;21.60;99.90;;;;;;4952886;28;20841;-71
2022/09/02 11:16:13;;;;;;;0.33;0.33;;;21.40;99.90;;;;;;4953539;28;20970;-71
2022/09/02 11:18:46;;;;;;;0.53;0.40;;;21.30;99.90;;;;;;4958449;28;20502;-71
2022/09/02 11:21:27;;;;;;;0.43;0.43;;;21.40;99.90;;;;;;4956822;28;20477;-74
2022/09/02 11:23:59;;;;;;;0.50;0.50;;;21.40;99.90;;;;;;4953352;28;20469;-71
2022/09/02 11:26:29;;;;;;;0.43;0.43;;;21.40;99.90;;;;;;4952477;28;20472;-71
2022/09/02 11:28:59;;;;;;;0.50;0.50;;;21.30;99.90;;;;;;4952428;28;20485;-71
2022/09/02 11:31:33;;;;;;;0.50;0.43;;;21.20;99.90;;;;;;4954857;28;20553;-72
2022/09/02 11:34:07;;;;;;;0.50;0.50;;;21.20;99.90;;;;;;4960088;28;20531;-71
2022/09/02 11:36:37;;;;;;;0.37;0.37;;;21.10;99.90;;;;;;4952093;28;20896;-70
2022/09/02 11:39:11;;;;;;;0.43;0.43;;;21.10;99.90;;;;;;4952619;28;21002;-72
2022/09/02 11:42:04;;;;;;;0.40;0.40;;;21.40;99.90;;;;;;4952314;28;20508;-72
2022/09/02 11:45:09;;;;;;;0.50;0.50;;;21.50;99.90;;;;;;4952536;28;20584;-72
2022/09/02 11:47:56;;;;;;;0.33;0.33;;;21.50;99.90;;;;;;4962217;28;20490;-71
2022/09/02 11:50:49;;;;;;;0.37;0.37;;;21.60;99.90;;;;;;4960606;28;20583;-72
2022/09/02 11:53:21;;;;;;;0.33;0.33;;;21.80;99.90;;;;;;4952599;28;20473;-72
2022/09/02 11:55:55;;;;;;;0.50;0.50;;;21.70;99.90;;;;;;4952902;28;20467;-72
2022/09/02 11:58:36;;;;;;;0.40;0.40;;;21.60;99.90;;;;;;4953071;28;20493;-73
2022/09/02 12:01:28;;;;;;;0.40;0.40;;;21.60;99.90;;;;;;4960458;28;20481;-72
2022/09/02 12:04:00;;;;;;;0.47;0.47;;;21.70;99.90;;;;;;4956710;28;20461;-72
2022/09/02 12:06:27;;;;;;;0.70;0.60;;;21.90;99.90;;;;;;4955815;28;20461;-72
2022/09/02 12:09:09;;;;;;;0.37;0.37;;;22.00;99.90;;;;;;4955541;28;20489;-72
2022/09/02 12:11:49;;;;;;;0.30;0.30;;;22.10;99.90;;;;;;4955927;28;20532;-71
2022/09/02 12:15:03;;;;;;;0.60;0.60;;;22.10;99.90;;;;;;4957932;28;20476;-72
2022/09/02 12:17:39;;;;;;;0.47;0.47;;;22.10;99.90;;;;;;4956571;28;20501;-73
2022/09/02 12:20:08;;;;;;;0.67;0.67;;;22.10;99.90;;;;;;4956409;28;20469;-72
2022/09/02 12:22:38;;;;;;;0.43;0.43;;;22.00;99.90;;;;;;4955646;28;20530;-71
2022/09/02 12:25:21;;;;;;;0.40;0.40;;;21.90;99.90;;;;;;4956636;28;20502;-72
2022/09/02 12:27:49;;;;;;;17.03;1.03;;;21.80;99.90;;;;;;4957231;28;20486;-72
2022/09/02 12:30:54;;;;;;;0.50;0.50;;;21.80;99.90;;;;;;4963547;28;20470;-71
2022/09/02 12:33:29;;;;;;;0.40;0.40;;;21.70;99.90;;;;;;4955197;28;20911;-71
2022/09/02 12:35:58;;;;;;;0.40;0.40;;;21.70;99.90;;;;;;4955451;28;20496;-72
2022/09/02 12:38:30;;;;;;;0.30;0.30;;;21.70;99.90;;;;;;4955598;28;20874;-70
2022/09/02 12:41:12;;;;;;;0.50;0.50;;;21.80;99.90;;;;;;4955758;28;20842;-69
2022/09/02 12:43:50;;;;;;;0.40;0.40;;;21.90;99.90;;;;;;4965475;28;20568;-71
2022/09/02 12:46:26;;;;;;;0.50;0.50;;;21.90;99.60;;;;;;4966614;28;20464;-71
2022/09/02 12:49:01;;;;;;;0.47;0.47;;;22.00;99.90;;;;;;4974465;28;20483;-70
2022/09/02 12:51:55;;;;;;;0.50;0.50;;;22.00;99.30;;;;;;4974235;28;20471;-71
2022/09/02 12:54:35;;;;;;;0.50;0.50;;;22.00;99.30;;;;;;4974041;28;20962;-72
2022/09/02 12:57:02;;;;;;;0.40;0.40;;;21.90;99.40;;;;;;4974138;28;20997;-72
2022/09/02 12:59:32;;;;;;;0.50;0.50;;;21.90;99.60;;;;;;4965349;28;20528;-70
2022/09/02 13:02:34;;;;;;;1.03;0.40;;;21.90;99.80;;;;;;4973705;28;20470;-71
2022/09/02 13:05:14;;;;;;;0.43;0.43;;;21.90;99.20;;;;;;4973968;28;20457;-71
2022/09/02 13:08:08;;;;;;;0.40;0.40;;;22.00;99.30;;;;;;4973881;28;20491;-72
2022/09/02 13:11:06;;;;;;;0.80;0.80;;;22.20;99.10;;;;;;4974326;28;20469;-73
2022/09/02 13:14:19;;;;;;;0.60;0.60;;;22.30;97.50;;;;;;4964816;28;20981;-72
2022/09/02 13:16:59;;;;;;;0.40;0.40;;;22.20;97.50;;;;;;4954125;28;20466;-72
2022/09/02 13:19:57;;;;;;;0.40;0.40;;;22.10;98.30;;;;;;4964059;28;20495;-72
2022/09/02 13:23:00;;;;;;;0.73;0.73;;;22.30;98.10;;;;;;4982900;28;20454;-72
2022/09/02 13:25:47;;;;;;;0.27;0.27;;;22.30;98.40;;;;;;4980803;28;20460;-72
2022/09/02 13:28:47;;;;;;;0.90;0.90;;;22.10;98.10;;;;;;4962286;28;20489;-72
2022/09/02 13:31:20;;;;;;;0.90;0.90;;;22.00;98.30;;;;;;4971475;28;20456;-72
2022/09/02 13:33:49;;;;;;;0.60;0.60;;;22.00;97.90;;;;;;4972954;28;20472;-72
2022/09/02 13:36:27;;;;;;;0.50;0.50;;;22.00;98.00;;;;;;4973569;28;20520;-72
2022/09/02 13:38:53;;;;;;;0.60;0.60;;;22.00;97.60;;;;;;4973587;28;20488;-73
2022/09/02 13:41:30;;;;;;;0.40;0.40;;;21.90;97.80;;;;;;4964707;28;20477;-73
2022/09/02 13:44:20;;;;;;;0.80;0.80;;;21.80;97.80;;;;;;4964772;28;20956;-73
2022/09/02 13:46:49;;;;;;;0.60;0.60;;;21.80;97.80;;;;;;4953531;28;20464;-72
2022/09/02 13:49:27;;;;;;;0.60;0.60;;;21.90;97.80;;;;;;4953783;28;21006;-73
2022/09/02 13:51:55;;;;;;;0.60;0.60;;;22.10;97.80;;;;;;4953482;28;20663;-72
2022/09/02 13:54:29;;;;;;;0.70;0.70;;;22.20;97.30;;;;;;4959005;28;20464;-72
2022/09/02 13:56:57;;;;;;;0.40;0.40;;;22.30;96.90;;;;;;4961441;28;20466;-71
2022/09/02 13:59:35;;;;;;;0.77;0.30;;;22.30;97.20;;;;;;4953630;28;20485;-72
2022/09/02 14:02:17;;;;;;;0.50;0.50;;;22.10;97.10;;;;;;4952902;28;20469;-71
2022/09/02 14:04:45;;;;;;;0.80;0.80;;;22.00;97.20;;;;;;4953594;28;20473;-71
2022/09/02 14:07:14;;;;;;;0.87;0.80;;;22.00;97.00;;;;;;4952895;28;20466;-72
2022/09/02 14:09:41;;;;;;;1.40;0.73;;;21.90;96.90;;;;;;4961858;28;20819;-72
2022/09/02 14:12:09;;;;;;;0.60;0.60;;;21.90;96.90;;;;;;4957221;28;20887;-71
2022/09/02 14:14:36;;;;;;;0.93;0.93;;;21.80;96.70;;;;;;4953161;28;20470;-72
2022/09/02 14:17:20;;;;;;;0.90;0.90;;;21.90;96.60;;;;;;4952500;28;20571;-73
2022/09/02 14:19:49;;;;;;;0.40;0.40;;;22.00;96.50;;;;;;4953611;28;20497;-72
2022/09/02 14:22:24;;;;;;;0.70;0.70;;;22.20;96.70;;;;;;4957492;28;20470;-72
2022/09/02 14:24:50;;;;;;;0.47;0.47;;;22.40;96.60;;;;;;4960613;28;20472;-72
2022/09/02 14:27:20;;;;;;;0.70;0.70;;;22.40;96.10;;;;;;4952642;28;20550;-70
2022/09/02 14:29:53;;;;;;;0.70;0.70;;;22.30;96.10;;;;;;4953085;28;20488;-72
2022/09/02 14:32:22;;;;;;;0.40;0.40;;;22.20;96.00;;;;;;4952492;28;20488;-72
2022/09/02 14:35:18;;;;;;;0.50;0.50;;;22.10;96.40;;;;;;4952829;28;20476;-73
2022/09/02 14:37:50;;;;;;;0.80;0.80;;;22.20;96.40;;;;;;4961025;28;20493;-73
2022/09/02 14:40:18;;;;;;;0.40;0.40;;;22.30;95.60;;;;;;4955800;28;20461;-72
2022/09/02 14:42:47;;;;;;;0.57;0.57;;;22.30;95.30;;;;;;4952534;28;20478;-72
2022/09/02 14:45:24;;;;;;;0.80;0.80;;;22.30;95.20;;;;;;4952863;28;20468;-72
2022/09/02 14:47:50;;;;;;;0.60;0.60;;;22.20;95.10;;;;;;4952159;28;20487;-72
2022/09/02 14:50:22;;;;;;;1.73;0.60;;;22.10;95.70;;;;;;4956925;28;20820;-72
2022/09/02 14:52:52;;;;;;;0.43;0.43;;;22.00;95.60;;;;;;4959967;28;20965;-71
2022/09/02 14:55:48;;;;;;;0.50;0.50;;;22.00;95.30;;;;;;4969463;28;20492;-71
2022/09/02 14:58:17;;;;;;;0.50;0.50;;;22.10;95.40;;;;;;4971920;28;20505;-72
2022/09/02 15:00:46;;;;;;;0.73;0.67;;;22.10;95.30;;;;;;4971797;28;20989;-71
2022/09/02 15:03:16;;;;;;;0.63;0.63;;;22.20;95.90;;;;;;4971538;28;20492;-72
2022/09/02 15:05:44;;;;;;;0.67;0.67;;;22.30;95.50;;;;;;4964056;28;20519;-72
2022/09/02 15:08:11;;;;;;;0.70;0.70;;;22.30;94.60;;;;;;4956637;28;20495;-73
2022/09/02 15:10:39;;;;;;;0.50;0.50;;;22.30;94.20;;;;;;4953089;28;20499;-72
2022/09/02 15:13:07;;;;;;;0.90;0.90;;;22.30;94.30;;;;;;4952760;28;20526;-73
2022/09/02 15:15:34;;;;;;;0.60;0.60;;;22.30;93.70;;;;;;4952971;28;20461;-73
2022/09/02 15:18:01;;;;;;;0.80;0.80;;;22.20;93.90;;;;;;4954130;28;20508;-72
2022/09/02 15:20:28;;;;;;;0.70;0.70;;;22.10;94.00;;;;;;4961445;28;20468;-73
2022/09/02 15:22:56;;;;;;;0.80;0.80;;;22.10;94.10;;;;;;4959468;28;20473;-71
2022/09/02 15:25:23;;;;;;;0.60;0.60;;;22.20;94.00;;;;;;4961186;28;20469;-72
2022/09/02 15:27:50;;;;;;;0.70;0.70;;;22.40;94.20;;;;;;4959299;28;20483;-72
2022/09/02 15:30:17;;;;;;;0.50;0.50;;;22.50;94.20;;;;;;4952946;28;20493;-72
2022/09/02 15:32:44;;;;;;;2.50;0.73;;;22.50;94.00;;;;;;4955654;28;20553;-72
2022/09/02 15:35:11;;;;;;;0.80;0.80;;;22.50;93.60;;;;;;4960890;28;20489;-72
2022/09/02 15:37:38;;;;;;;0.53;0.53;;;22.50;94.20;;;;;;4952866;28;20505;-72
2022/09/02 15:40:08;;;;;;;0.70;0.60;;;22.50;94.20;;;;;;4956647;28;20477;-73
2022/09/02 15:42:35;;;;;;;0.40;0.40;;;22.70;93.80;;;;;;4960331;28;20478;-72
2022/09/02 15:45:04;;;;;;;0.57;0.57;;;22.70;93.90;;;;;;4969957;28;20471;-73
2022/09/02 15:47:34;;;;;;;0.77;0.77;;;22.80;93.90;;;;;;4967049;28;20473;-72
2022/09/02 15:50:00;;;;;;;0.43;0.43;;;22.80;93.40;;;;;;4956359;28;20461;-73
2022/09/02 15:52:27;;;;;;;0.60;0.60;;;22.70;93.90;;;;;;4956172;28;21166;-73
2022/09/02 15:54:54;;;;;;;0.77;0.77;;;22.60;93.60;;;;;;4956526;28;20476;-72
2022/09/02 15:57:22;;;;;;;0.30;0.30;;;22.40;93.60;;;;;;4956185;28;20554;-72
2022/09/02 15:59:50;;;;;;;0.70;0.70;;;22.30;94.00;;;;;;4965838;28;20996;-71
2022/09/02 16:02:17;;;;;;;0.50;0.50;;;22.10;94.20;;;;;;4965447;28;20465;-73
2022/09/02 16:04:43;;;;;;;0.33;0.33;;;22.00;94.00;;;;;;4958035;28;20501;-72
2022/09/02 16:07:10;;;;;;;0.80;0.80;;;22.00;94.10;;;;;;4958006;28;20470;-72
2022/09/02 16:09:37;;;;;;;0.90;0.90;;;22.10;94.20;;;;;;4956848;28;20544;-72
2022/09/02 16:12:05;;;;;;;0.70;0.70;;;22.10;94.20;;;;;;4956489;28;20467;-74
2022/09/02 16:14:33;;;;;;;0.80;0.80;;;22.20;93.60;;;;;;4956385;28;20470;-72
2022/09/02 16:17:00;;;;;;;2.53;0.33;;;22.20;93.60;;;;;;4965376;28;20503;-72
2022/09/02 16:19:27;;;;;;;3.20;0.70;;;22.20;92.70;;;;;;4990130;23;20507;-70
2022/09/02 16:21:54;;;;;;;1.43;0.53;;;22.20;93.10;;;;;;4983289;28;21124;-69
2022/09/02 16:24:21;;;;;;;0.60;0.60;;;22.10;93.90;;;;;;4991557;28;20459;-70
2022/09/02 16:26:49;;;;;;;0.60;0.60;;;22.10;93.90;;;;;;4994168;28;20463;-70
2022/09/02 16:29:17;;;;;;;0.40;0.40;;;22.10;93.50;;;;;;4994041;28;21015;-69
2022/09/02 16:31:46;;;;;;;0.80;0.80;;;22.10;93.60;;;;;;4993361;28;20513;-71
2022/09/02 16:34:15;;;;;;;0.73;0.70;;;22.00;93.70;;;;;;4980194;28;20995;-69
2022/09/02 16:36:43;;;;;;;0.53;0.53;;;22.00;93.80;;;;;;4978504;28;20460;-69
2022/09/02 16:39:11;;;;;;;0.70;0.70;;;22.00;93.50;;;;;;4971468;28;20488;-69
2022/09/02 16:41:42;;;;;;;0.80;0.60;;;21.90;93.60;;;;;;4974396;28;20479;-70
2022/09/02 16:44:11;;;;;;;0.50;0.50;;;21.90;94.00;;;;;;4975058;28;20473;-70
2022/09/02 16:46:40;;;;;;;0.50;0.50;;;21.80;93.60;;;;;;4974465;28;20470;-69
2022/09/02 16:49:09;;;;;;;0.30;0.30;;;21.70;93.60;;;;;;4977225;28;20493;-69
2022/09/02 16:51:37;;;;;;;0.53;0.53;;;21.60;93.80;;;;;;4982291;28;20472;-68
2022/09/02 16:54:05;;;;;;;0.50;0.50;;;21.60;94.60;;;;;;4979898;28;20468;-68
2022/09/02 16:56:32;;;;;;;0.80;0.80;;;21.60;94.30;;;;;;4982133;28;20566;-68
2022/09/02 16:59:01;;;;;;;0.50;0.50;;;21.50;94.20;;;;;;4958031;28;20910;-68
2022/09/02 17:01:29;;;;;;;1.90;0.70;;;21.50;94.30;;;;;;4971268;28;20668;-68
2022/09/02 17:03:56;;;;;;;0.40;0.40;;;21.40;94.20;;;;;;4979270;28;20461;-68
2022/09/02 17:06:24;;;;;;;0.63;0.63;;;21.30;94.50;;;;;;4985153;28;20481;-68
2022/09/02 17:08:50;;;;;;;0.87;0.87;;;21.30;94.70;;;;;;4984637;28;20486;-68
2022/09/02 17:11:20;;;;;;;0.30;0.30;;;21.20;94.80;;;;;;4990716;28;20471;-68
2022/09/02 17:13:47;;;;;;;0.60;0.60;;;21.20;94.70;;;;;;4973259;28;20476;-68